createdAt,value
2023-01-30T00:00:23.905Z,91.00
2023-01-30T00:05:26.028Z,91.56
2023-01-30T00:10:27.924Z,91.72
2023-01-30T00:15:29.819Z,91.48
2023-01-30T00:20:31.847Z,91.37
2023-01-30T00:25:34.019Z,90.92
2023-01-30T00:30:36.298Z,91.46
2023-01-30T00:35:38.357Z,91.94
2023-01-30T00:40:40.344Z,92.08
2023-01-30T00:45:43.398Z,91.64
2023-01-30T00:50:45.353Z,91.62
2023-01-30T00:55:47.241Z,91.20
2023-01-30T01:00:49.928Z,91.85
2023-01-30T01:05:51.610Z,91.92
2023-01-30T01:10:53.510Z,92.29
2023-01-30T01:15:55.425Z,92.52
2023-01-30T01:20:57.334Z,93.02
2023-01-30T01:26:02.230Z,93.04
2023-01-30T01:31:11.264Z,93.21
2023-01-30T01:36:20.001Z,94.55
2023-01-30T01:41:31.507Z,94.37
2023-01-30T01:46:38.944Z,94.35
2023-01-30T01:51:43.138Z,94.97
2023-01-30T01:56:45.813Z,94.78
2023-01-30T02:01:47.588Z,95.59
2023-01-30T02:06:49.537Z,96.14
2023-01-30T02:11:54.841Z,96.37
2023-01-30T02:16:56.783Z,96.15
2023-01-30T02:22:37.017Z,95.40
2023-01-30T02:28:06.661Z,96.72
2023-01-30T02:33:24.949Z,98.28
2023-01-30T02:38:41.618Z,99.26
2023-01-30T02:44:05.940Z,98.93
2023-01-30T02:49:17.753Z,99.20
2023-01-30T02:54:19.668Z,98.46
2023-01-30T02:59:40.692Z,97.25
2023-01-30T03:05:19.759Z,97.17
2023-01-30T03:10:46.180Z,97.05
2023-01-30T03:15:51.488Z,97.05
2023-01-30T03:20:53.560Z,96.49
2023-01-30T03:25:55.370Z,95.78
2023-01-30T03:30:57.330Z,95.10
2023-01-30T03:35:59.260Z,94.68
2023-01-30T03:41:01.340Z,94.48
2023-01-30T03:46:03.355Z,94.24
2023-01-30T03:51:06.107Z,93.54
2023-01-30T03:56:08.010Z,93.34
2023-01-30T04:01:09.930Z,92.92
2023-01-30T04:06:11.765Z,92.89
2023-01-30T04:11:13.637Z,92.77
2023-01-30T04:16:16.530Z,93.38
2023-01-30T04:21:18.448Z,93.26
2023-01-30T04:26:20.316Z,93.00
2023-01-30T04:31:22.110Z,93.14
2023-01-30T04:36:23.879Z,93.44
2023-01-30T04:41:25.704Z,92.95
2023-01-30T04:46:27.452Z,93.84
2023-01-30T04:51:29.199Z,93.16
2023-01-30T04:56:30.954Z,93.37
2023-01-30T05:01:34.997Z,92.57
2023-01-30T05:06:36.814Z,92.34
2023-01-30T05:11:39.047Z,92.59
2023-01-30T05:16:40.805Z,92.02
2023-01-30T05:21:42.543Z,92.91
2023-01-30T05:26:44.379Z,92.89
2023-01-30T05:31:46.319Z,92.76
2023-01-30T05:36:48.133Z,93.21
2023-01-30T05:41:49.892Z,93.37
2023-01-30T05:46:51.622Z,93.12
2023-01-30T05:51:53.326Z,92.97
2023-01-30T05:56:55.084Z,93.29
2023-01-30T06:01:56.831Z,92.79
2023-01-30T06:06:58.594Z,93.15
2023-01-30T06:12:00.335Z,93.38
2023-01-30T06:17:02.195Z,93.20
2023-01-30T06:22:04.006Z,93.74
2023-01-30T06:27:05.745Z,93.59
2023-01-30T06:32:07.482Z,93.62
2023-01-30T06:37:09.218Z,93.03
2023-01-30T06:42:10.974Z,93.24
2023-01-30T06:47:12.733Z,92.83
2023-01-30T06:52:14.469Z,93.43
2023-01-30T06:57:16.205Z,92.99
2023-01-30T07:02:17.946Z,92.99
2023-01-30T07:07:19.673Z,93.19
2023-01-30T07:12:21.403Z,94.55
2023-01-30T07:17:23.196Z,94.05
2023-01-30T07:22:25.019Z,93.89
2023-01-30T07:27:26.770Z,94.11
2023-01-30T07:32:28.510Z,93.63
2023-01-30T07:37:30.261Z,94.06
2023-01-30T07:42:32.034Z,93.50
2023-01-30T07:47:33.785Z,93.43
2023-01-30T07:52:35.568Z,93.05
2023-01-30T07:57:37.299Z,93.03
2023-01-30T08:02:39.047Z,94.01
2023-01-30T08:07:40.838Z,93.43
2023-01-30T08:12:42.594Z,94.08
2023-01-30T08:17:44.386Z,94.57
2023-01-30T08:22:46.154Z,93.54
2023-01-30T08:27:47.912Z,94.06
2023-01-30T08:32:49.683Z,94.01
2023-01-30T08:37:51.429Z,93.51
2023-01-30T08:42:53.156Z,93.81
2023-01-30T08:47:58.853Z,93.97
2023-01-30T08:53:05.401Z,93.00
2023-01-30T08:58:07.165Z,93.00
2023-01-30T09:03:08.897Z,92.42
2023-01-30T09:08:10.669Z,92.79
2023-01-30T09:13:12.454Z,91.77
2023-01-30T09:18:14.215Z,91.01
2023-01-30T09:23:16.132Z,91.26
2023-01-30T09:28:17.928Z,91.18
2023-01-30T09:33:19.634Z,91.31
2023-01-30T09:38:21.419Z,90.49
2023-01-30T09:43:36.026Z,90.59
2023-01-30T09:49:18.145Z,90.40
2023-01-30T09:54:25.570Z,89.99
2023-01-30T09:59:32.688Z,89.42
2023-01-30T10:04:36.311Z,89.94
2023-01-30T10:10:19.748Z,90.32
2023-01-30T10:15:45.733Z,89.95
2023-01-30T10:21:11.389Z,90.20
2023-01-30T10:26:15.106Z,89.71
2023-01-30T10:31:17.068Z,90.65
2023-01-30T10:36:25.425Z,89.73
2023-01-30T10:41:31.486Z,89.79
2023-01-30T10:46:55.144Z,90.08
2023-01-30T10:52:24.508Z,90.84
2023-01-30T10:57:58.535Z,91.37
2023-01-30T11:03:15.345Z,91.49
2023-01-30T11:08:31.267Z,91.83
2023-01-30T11:13:33.576Z,91.90
2023-01-30T11:24:19.190Z,92.11
2023-01-30T11:29:31.671Z,92.30
2023-01-30T11:34:33.418Z,92.60
2023-01-30T11:39:38.208Z,92.27
2023-01-30T11:44:46.024Z,93.05
2023-01-30T11:50:03.210Z,92.48
2023-01-30T11:55:17.646Z,92.93
2023-01-30T12:00:21.472Z,93.78
2023-01-30T12:05:23.353Z,93.54
2023-01-30T12:10:25.046Z,94.22
2023-01-30T12:15:27.493Z,93.80
2023-01-30T12:20:49.497Z,93.60
2023-01-30T12:26:14.067Z,94.03
2023-01-30T12:31:42.679Z,94.24
2023-01-30T12:37:03.395Z,94.67
2023-01-30T12:42:34.949Z,95.72
2023-01-30T12:48:04.630Z,95.75
2023-01-30T12:53:12.083Z,94.70
2023-01-30T12:58:39.623Z,95.39
2023-01-30T13:03:59.895Z,95.18
2023-01-30T13:09:05.566Z,95.20
2023-01-30T13:14:13.206Z,95.23
2023-01-30T13:19:20.879Z,95.03
2023-01-30T13:24:34.522Z,95.28
2023-01-30T13:29:38.144Z,95.34
2023-01-30T13:34:41.870Z,95.50
2023-01-30T13:39:59.980Z,95.67
2023-01-30T13:45:01.731Z,96.15
2023-01-30T13:50:21.319Z,96.35
2023-01-30T13:55:46.399Z,96.75
2023-01-30T14:00:55.001Z,97.93
2023-01-30T14:05:56.721Z,98.32
2023-01-30T14:10:58.495Z,98.56
2023-01-30T14:16:04.233Z,98.87
2023-01-30T14:21:14.795Z,99.34
2023-01-30T14:26:16.606Z,98.12
2023-01-30T14:31:49.578Z,97.76
2023-01-30T14:36:51.487Z,96.78
2023-01-30T14:42:31.872Z,95.89
2023-01-30T14:47:39.972Z,95.07
2023-01-30T14:52:48.620Z,93.83
2023-01-30T14:57:54.335Z,93.36
2023-01-30T15:03:03.847Z,92.95
2023-01-30T15:08:06.755Z,91.69
2023-01-30T15:13:11.100Z,91.46
2023-01-30T15:18:28.483Z,91.63
2023-01-30T15:23:54.232Z,90.82
2023-01-30T15:29:26.796Z,90.66
2023-01-30T15:34:32.507Z,90.63
2023-01-30T15:39:34.304Z,90.04
2023-01-30T15:44:55.042Z,89.77
2023-01-30T15:50:07.113Z,89.08
2023-01-30T15:55:15.466Z,89.37
2023-01-30T16:00:33.346Z,89.29
2023-01-30T16:05:35.357Z,88.57
2023-01-30T16:10:45.904Z,89.10
2023-01-30T16:15:54.594Z,88.38
2023-01-30T16:21:10.217Z,88.23
2023-01-30T16:26:16.447Z,87.80
2023-01-30T16:31:18.482Z,87.24
2023-01-30T16:36:20.301Z,87.29
2023-01-30T16:41:35.139Z,86.91
2023-01-30T16:46:43.016Z,87.26
2023-01-30T16:51:44.896Z,87.04
2023-01-30T16:56:48.510Z,86.93
2023-01-30T17:01:50.504Z,86.01
2023-01-30T17:07:02.532Z,85.92
2023-01-30T17:12:25.840Z,86.51
2023-01-30T17:17:27.650Z,85.75
2023-01-30T17:22:29.407Z,86.01
2023-01-30T17:27:31.322Z,86.50
2023-01-30T17:32:33.215Z,87.10
2023-01-30T17:37:35.162Z,86.77
2023-01-30T17:42:37.169Z,87.63
2023-01-30T17:47:39.262Z,88.51
2023-01-30T17:52:41.202Z,88.87
2023-01-30T17:57:43.391Z,88.93
2023-01-30T18:02:45.456Z,88.86
2023-01-30T18:07:47.309Z,88.98
2023-01-30T18:12:49.110Z,88.68
2023-01-30T18:17:51.417Z,88.97
2023-01-30T18:22:53.156Z,89.46
2023-01-30T18:27:55.039Z,88.98
2023-01-30T18:32:56.950Z,89.54
2023-01-30T18:38:02.622Z,88.94
2023-01-30T18:43:04.935Z,88.90
2023-01-30T18:48:07.121Z,88.27
2023-01-30T18:53:08.898Z,88.62
2023-01-30T18:58:10.800Z,88.77
2023-01-30T19:03:12.665Z,88.80
2023-01-30T19:08:14.468Z,89.44
2023-01-30T19:13:16.844Z,90.43
2023-01-30T19:18:18.735Z,90.64
2023-01-30T19:23:21.185Z,91.22
2023-01-30T19:28:23.397Z,91.67
2023-01-30T19:33:25.316Z,91.83
2023-01-30T19:38:27.393Z,92.25
2023-01-30T19:43:29.287Z,91.96
2023-01-30T19:48:31.231Z,91.88
2023-01-30T19:53:33.170Z,91.91
2023-01-30T19:58:36.118Z,92.57
2023-01-30T20:03:38.438Z,93.86
2023-01-30T20:08:40.892Z,94.85
2023-01-30T20:13:43.146Z,96.16
2023-01-30T20:18:45.055Z,96.12
2023-01-30T20:23:47.112Z,96.77
2023-01-30T20:28:49.161Z,97.16
2023-01-30T20:33:51.296Z,97.75
2023-01-30T20:38:53.332Z,97.11
2023-01-30T20:43:55.962Z,97.04
2023-01-30T20:48:58.248Z,98.46
2023-01-30T20:54:04.312Z,98.28
2023-01-30T20:59:07.078Z,97.79
2023-01-30T21:04:09.452Z,97.89
2023-01-30T21:09:13.307Z,98.02
2023-01-30T21:14:15.925Z,98.41
2023-01-30T21:19:17.656Z,98.45
2023-01-30T21:24:22.172Z,98.32
2023-01-30T21:29:24.919Z,98.48
2023-01-30T21:34:26.921Z,99.05
2023-01-30T21:39:28.845Z,98.82
2023-01-30T21:44:35.139Z,98.77
2023-01-30T21:49:37.063Z,99.25
2023-01-30T21:54:39.129Z,99.56
2023-01-30T21:59:41.031Z,100.00
2023-01-30T22:04:42.984Z,100.00
2023-01-30T22:09:44.950Z,99.94
2023-01-30T22:14:46.946Z,99.76
2023-01-30T22:19:48.961Z,100.00
2023-01-30T22:24:50.838Z,99.77
2023-01-30T22:29:52.760Z,99.45
2023-01-30T22:34:54.747Z,99.64
2023-01-30T22:39:56.603Z,99.38
2023-01-30T22:44:58.412Z,98.59
2023-01-30T22:50:00.357Z,98.20
2023-01-30T22:55:02.244Z,98.40
2023-01-30T23:00:06.067Z,97.95
2023-01-30T23:05:07.991Z,98.17
2023-01-30T23:10:10.355Z,97.60
2023-01-30T23:15:12.351Z,98.24
2023-01-30T23:20:14.344Z,97.97
2023-01-30T23:25:16.327Z,97.57
2023-01-30T23:30:18.308Z,97.17
2023-01-30T23:35:20.546Z,97.32
2023-01-30T23:40:22.707Z,97.71
2023-01-30T23:45:27.039Z,97.21
2023-01-30T23:50:28.923Z,97.44
2023-01-30T23:55:32.529Z,97.03
